Pagrindinis puslapis
METAR-TAF:

METAR-TAF

Oro uostai :

Ušuaja, Argentina

platuma: 54-48S, ilguma: 068-19W, Aukštis: 16 m

Dabartinis oras

Ataskaita buvo paskelbta 15 minutes, ne 23:00 UTC
Vėjas 14 kt iš Vakarų su gūsio iki 30 kt
Temperatūra 8°C
Drėgmė 46%
Slėgis 990 hPa
Matomumas 10 km arba daugiau
Mažai debesys ne aukštis 4000 ft
Išsisklaidę debesys ne aukštis 7000 ft

METAR: SAWH 012300Z 27014G30KT 9999 FEW040 SCT070 08/M03 Q0990

Laikas: 20:15 (23:15 UTC)

Prognozė

Ataskaita buvo paskelbta 6 valandos ir 15 minutes, ne 17:00 UTC
Prognozė galioja nuo 01 metu 18 UTC su 02 metu 18 UTC
Vėjas 20 kt iš Vakarų/Šiaurės Vakarų
Matomumas 10 km arba daugiau
Su prošvaistėmis ne aukštis 2500 ft
Išsisklaidę debesys ne aukštis 4000 ft
Laikinai
nuo 02 metu 00 UTC su 02 metu 12 UTC
Vėjas 5 kt nuo kintamojo kryptimis

TAF: SAWH 011700Z 0118/0218 30020KT 9999 BKN025 SCT040 TX08/0119Z TN02/0210Z TEMPO 0200/0212 VRB05KT

Orai ataskaitas ir orų prognozės (METAR, TAF).

turimą stotys yra geltonos ir raudonos taškus žemėlapyje.

Perkelti pele per norėdami pamatyti stoties vardą.

Tada spustelėkite, norėdami matyti oro stebėjimo ir prognozės.

Norėdami pakeisti žemėlapį: spustelėkite ant žalios mygtukų su juodo kryžiaus žemyn,; žalią mygtuką su brūkšneliu, jei norite nutolinti; arba žalių rodyklių gretimoms žemėlapius.


METAR-TAF: